sensor_id;sensor_type;location;lat;lon;timestamp;temperature;humidity
5041;DHT22;2539;52.568;13.364;2023-03-31T00:00:58;9.90;99.90
5041;DHT22;2539;52.568;13.364;2023-03-31T00:03:28;9.90;99.90
5041;DHT22;2539;52.568;13.364;2023-03-31T00:06:04;9.90;99.90
5041;DHT22;2539;52.568;13.364;2023-03-31T00:08:31;9.90;99.90
5041;DHT22;2539;52.568;13.364;2023-03-31T00:11:03;9.90;99.90
5041;DHT22;2539;52.568;13.364;2023-03-31T00:13:30;10.00;99.90
5041;DHT22;2539;52.568;13.364;2023-03-31T00:16:05;10.00;99.90
5041;DHT22;2539;52.568;13.364;2023-03-31T00:18:39;10.00;99.90
5041;DHT22;2539;52.568;13.364;2023-03-31T00:21:16;10.00;99.90
5041;DHT22;2539;52.568;13.364;2023-03-31T00:24:10;10.00;99.90
5041;DHT22;2539;52.568;13.364;2023-03-31T00:26:36;10.00;99.90
5041;DHT22;2539;52.568;13.364;2023-03-31T00:29:05;10.00;99.90
5041;DHT22;2539;52.568;13.364;2023-03-31T00:31:32;10.00;99.90
5041;DHT22;2539;52.568;13.364;2023-03-31T00:33:58;10.00;99.90
5041;DHT22;2539;52.568;13.364;2023-03-31T00:36:25;10.00;99.90
5041;DHT22;2539;52.568;13.364;2023-03-31T00:38:59;10.00;99.90
5041;DHT22;2539;52.568;13.364;2023-03-31T00:41:29;10.00;99.90
5041;DHT22;2539;52.568;13.364;2023-03-31T00:44:17;10.00;99.90
5041;DHT22;2539;52.568;13.364;2023-03-31T00:46:58;10.00;99.90
5041;DHT22;2539;52.568;13.364;2023-03-31T00:49:40;10.00;99.90
5041;DHT22;2539;52.568;13.364;2023-03-31T00:52:20;10.00;99.90
5041;DHT22;2539;52.568;13.364;2023-03-31T00:54:51;10.00;99.90
5041;DHT22;2539;52.568;13.364;2023-03-31T00:57:19;10.00;99.90
5041;DHT22;2539;52.568;13.364;2023-03-31T00:59:49;10.00;99.90
5041;DHT22;2539;52.568;13.364;2023-03-31T01:02:17;10.00;99.90
5041;DHT22;2539;52.568;13.364;2023-03-31T01:04:49;9.90;99.90
5041;DHT22;2539;52.568;13.364;2023-03-31T01:07:31;10.00;99.90
5041;DHT22;2539;52.568;13.364;2023-03-31T01:10:01;9.90;99.90
5041;DHT22;2539;52.568;13.364;2023-03-31T01:12:30;9.80;99.90
5041;DHT22;2539;52.568;13.364;2023-03-31T01:14:57;9.80;99.90
5041;DHT22;2539;52.568;13.364;2023-03-31T01:17:24;9.70;99.90
5041;DHT22;2539;52.568;13.364;2023-03-31T01:35:24;9.40;99.90
5041;DHT22;2539;52.568;13.364;2023-03-31T01:38:29;9.40;99.90
5041;DHT22;2539;52.568;13.364;2023-03-31T01:43:43;9.30;99.90
5041;DHT22;2539;52.568;13.364;2023-03-31T01:46:36;9.30;99.90
5041;DHT22;2539;52.568;13.364;2023-03-31T01:49:26;9.30;99.90
5041;DHT22;2539;52.568;13.364;2023-03-31T01:52:21;9.20;99.90
5041;DHT22;2539;52.568;13.364;2023-03-31T01:55:11;9.20;99.90
5041;DHT22;2539;52.568;13.364;2023-03-31T01:57:40;9.20;99.90
5041;DHT22;2539;52.568;13.364;2023-03-31T02:00:14;9.20;99.90
5041;DHT22;2539;52.568;13.364;2023-03-31T02:03:10;9.30;99.90
5041;DHT22;2539;52.568;13.364;2023-03-31T02:05:48;9.30;99.90
5041;DHT22;2539;52.568;13.364;2023-03-31T02:08:24;9.30;99.90
5041;DHT22;2539;52.568;13.364;2023-03-31T02:10:54;9.30;99.90
5041;DHT22;2539;52.568;13.364;2023-03-31T02:13:22;9.30;99.90
5041;DHT22;2539;52.568;13.364;2023-03-31T02:15:53;9.30;99.90
5041;DHT22;2539;52.568;13.364;2023-03-31T02:18:26;9.40;99.90
5041;DHT22;2539;52.568;13.364;2023-03-31T02:20:57;9.40;99.90
5041;DHT22;2539;52.568;13.364;2023-03-31T02:23:27;9.40;99.90
5041;DHT22;2539;52.568;13.364;2023-03-31T02:26:01;9.50;99.90
5041;DHT22;2539;52.568;13.364;2023-03-31T02:28:30;9.50;99.90
5041;DHT22;2539;52.568;13.364;2023-03-31T02:31:28;9.50;99.90
5041;DHT22;2539;52.568;13.364;2023-03-31T02:33:58;9.60;99.90
5041;DHT22;2539;52.568;13.364;2023-03-31T02:36:24;9.60;99.90
5041;DHT22;2539;52.568;13.364;2023-03-31T02:39:02;9.60;99.90
5041;DHT22;2539;52.568;13.364;2023-03-31T02:41:30;9.70;99.90
5041;DHT22;2539;52.568;13.364;2023-03-31T02:43:57;9.80;99.90
5041;DHT22;2539;52.568;13.364;2023-03-31T02:46:24;9.90;99.90
5041;DHT22;2539;52.568;13.364;2023-03-31T02:48:54;10.00;99.90
5041;DHT22;2539;52.568;13.364;2023-03-31T02:51:38;9.90;99.90
5041;DHT22;2539;52.568;13.364;2023-03-31T02:54:22;10.00;99.90
5041;DHT22;2539;52.568;13.364;2023-03-31T02:57:04;10.00;99.90
5041;DHT22;2539;52.568;13.364;2023-03-31T03:00:07;10.00;99.90
5041;DHT22;2539;52.568;13.364;2023-03-31T03:06:04;10.10;99.90
5041;DHT22;2539;52.568;13.364;2023-03-31T03:09:02;10.10;99.90
5041;DHT22;2539;52.568;13.364;2023-03-31T03:11:38;10.10;99.90
5041;DHT22;2539;52.568;13.364;2023-03-31T03:19:41;10.20;99.90
5041;DHT22;2539;52.568;13.364;2023-03-31T03:22:08;10.20;99.90
5041;DHT22;2539;52.568;13.364;2023-03-31T03:24:34;10.10;99.90
5041;DHT22;2539;52.568;13.364;2023-03-31T03:27:00;10.10;99.90
5041;DHT22;2539;52.568;13.364;2023-03-31T03:29:27;10.20;99.90
5041;DHT22;2539;52.568;13.364;2023-03-31T03:31:53;10.20;99.90
5041;DHT22;2539;52.568;13.364;2023-03-31T03:34:19;10.20;99.90
5041;DHT22;2539;52.568;13.364;2023-03-31T03:36:46;10.20;99.90
5041;DHT22;2539;52.568;13.364;2023-03-31T03:39:12;10.20;99.90
5041;DHT22;2539;52.568;13.364;2023-03-31T03:41:39;10.30;99.90
5041;DHT22;2539;52.568;13.364;2023-03-31T03:44:05;10.30;99.90
5041;DHT22;2539;52.568;13.364;2023-03-31T03:46:33;10.30;99.90
5041;DHT22;2539;52.568;13.364;2023-03-31T03:49:00;10.40;99.90
5041;DHT22;2539;52.568;13.364;2023-03-31T03:51:27;10.30;99.90
5041;DHT22;2539;52.568;13.364;2023-03-31T03:53:53;10.30;99.90
5041;DHT22;2539;52.568;13.364;2023-03-31T03:56:19;10.30;99.90
5041;DHT22;2539;52.568;13.364;2023-03-31T03:58:47;10.30;99.90
5041;DHT22;2539;52.568;13.364;2023-03-31T04:01:13;10.30;99.90
5041;DHT22;2539;52.568;13.364;2023-03-31T04:03:39;10.30;99.90
5041;DHT22;2539;52.568;13.364;2023-03-31T04:06:06;10.30;99.90
5041;DHT22;2539;52.568;13.364;2023-03-31T04:08:32;10.30;99.90
5041;DHT22;2539;52.568;13.364;2023-03-31T04:10:58;10.30;99.90
5041;DHT22;2539;52.568;13.364;2023-03-31T04:13:24;10.30;99.90
5041;DHT22;2539;52.568;13.364;2023-03-31T04:15:51;10.20;99.90
5041;DHT22;2539;52.568;13.364;2023-03-31T04:18:17;10.20;99.90
5041;DHT22;2539;52.568;13.364;2023-03-31T04:20:50;10.10;99.90
5041;DHT22;2539;52.568;13.364;2023-03-31T04:23:35;10.20;99.90
5041;DHT22;2539;52.568;13.364;2023-03-31T04:26:15;10.20;99.90
5041;DHT22;2539;52.568;13.364;2023-03-31T04:28:41;10.20;99.90
5041;DHT22;2539;52.568;13.364;2023-03-31T04:31:09;10.10;99.90
5041;DHT22;2539;52.568;13.364;2023-03-31T04:33:35;10.20;99.90
5041;DHT22;2539;52.568;13.364;2023-03-31T04:36:04;10.10;99.90
5041;DHT22;2539;52.568;13.364;2023-03-31T04:38:48;10.10;99.90
5041;DHT22;2539;52.568;13.364;2023-03-31T04:41:19;10.10;99.90
5041;DHT22;2539;52.568;13.364;2023-03-31T04:43:45;10.20;99.90
5041;DHT22;2539;52.568;13.364;2023-03-31T04:46:11;10.20;99.90
5041;DHT22;2539;52.568;13.364;2023-03-31T04:48:37;10.20;99.90
5041;DHT22;2539;52.568;13.364;2023-03-31T04:51:03;10.30;99.90
5041;DHT22;2539;52.568;13.364;2023-03-31T04:53:30;10.30;99.90
5041;DHT22;2539;52.568;13.364;2023-03-31T04:55:56;10.60;99.90
5041;DHT22;2539;52.568;13.364;2023-03-31T05:00:51;10.50;99.90
5041;DHT22;2539;52.568;13.364;2023-03-31T05:03:18;10.50;99.90
5041;DHT22;2539;52.568;13.364;2023-03-31T05:05:44;10.50;99.90
5041;DHT22;2539;52.568;13.364;2023-03-31T05:08:10;10.50;99.90
5041;DHT22;2539;52.568;13.364;2023-03-31T05:10:37;10.60;99.90
5041;DHT22;2539;52.568;13.364;2023-03-31T05:13:03;10.50;99.90
5041;DHT22;2539;52.568;13.364;2023-03-31T05:15:29;10.60;99.90
5041;DHT22;2539;52.568;13.364;2023-03-31T05:17:57;10.50;99.90
5041;DHT22;2539;52.568;13.364;2023-03-31T05:20:23;10.60;99.90
5041;DHT22;2539;52.568;13.364;2023-03-31T05:22:49;10.50;99.90
5041;DHT22;2539;52.568;13.364;2023-03-31T05:25:16;10.40;99.90
5041;DHT22;2539;52.568;13.364;2023-03-31T05:27:46;10.30;99.90
5041;DHT22;2539;52.568;13.364;2023-03-31T05:30:13;10.20;99.90
5041;DHT22;2539;52.568;13.364;2023-03-31T05:32:40;10.20;99.90
5041;DHT22;2539;52.568;13.364;2023-03-31T05:35:07;10.10;99.90
5041;DHT22;2539;52.568;13.364;2023-03-31T05:37:33;10.10;99.90
5041;DHT22;2539;52.568;13.364;2023-03-31T05:40:00;10.10;99.90
5041;DHT22;2539;52.568;13.364;2023-03-31T05:42:26;10.10;99.90
5041;DHT22;2539;52.568;13.364;2023-03-31T05:44:52;10.10;99.90
5041;DHT22;2539;52.568;13.364;2023-03-31T05:47:18;10.20;99.90
5041;DHT22;2539;52.568;13.364;2023-03-31T05:49:45;10.20;99.90
5041;DHT22;2539;52.568;13.364;2023-03-31T05:52:11;10.30;99.90
5041;DHT22;2539;52.568;13.364;2023-03-31T05:54:37;10.50;99.90
5041;DHT22;2539;52.568;13.364;2023-03-31T05:57:04;10.60;99.90
5041;DHT22;2539;52.568;13.364;2023-03-31T05:59:30;10.60;99.90
5041;DHT22;2539;52.568;13.364;2023-03-31T06:01:57;10.90;99.90
5041;DHT22;2539;52.568;13.364;2023-03-31T06:04:23;10.90;99.90
5041;DHT22;2539;52.568;13.364;2023-03-31T06:06:50;11.00;99.90
5041;DHT22;2539;52.568;13.364;2023-03-31T06:09:16;11.00;99.90
5041;DHT22;2539;52.568;13.364;2023-03-31T06:11:42;11.00;99.90
5041;DHT22;2539;52.568;13.364;2023-03-31T06:14:09;11.00;99.90
5041;DHT22;2539;52.568;13.364;2023-03-31T06:16:35;10.90;99.90
5041;DHT22;2539;52.568;13.364;2023-03-31T06:19:01;11.00;99.90
5041;DHT22;2539;52.568;13.364;2023-03-31T06:21:27;11.00;99.90
5041;DHT22;2539;52.568;13.364;2023-03-31T06:26:23;11.20;99.90
5041;DHT22;2539;52.568;13.364;2023-03-31T06:28:49;11.30;99.90
5041;DHT22;2539;52.568;13.364;2023-03-31T06:31:19;11.50;99.90
5041;DHT22;2539;52.568;13.364;2023-03-31T06:33:45;11.50;99.90
5041;DHT22;2539;52.568;13.364;2023-03-31T06:36:14;11.70;99.90
5041;DHT22;2539;52.568;13.364;2023-03-31T06:38:41;11.80;99.90
5041;DHT22;2539;52.568;13.364;2023-03-31T06:41:08;11.70;99.90
5041;DHT22;2539;52.568;13.364;2023-03-31T06:43:34;11.90;99.90
5041;DHT22;2539;52.568;13.364;2023-03-31T06:46:00;11.80;99.90
5041;DHT22;2539;52.568;13.364;2023-03-31T06:48:27;12.00;99.90
5041;DHT22;2539;52.568;13.364;2023-03-31T06:50:57;12.20;99.90
5041;DHT22;2539;52.568;13.364;2023-03-31T06:53:24;12.20;99.90
5041;DHT22;2539;52.568;13.364;2023-03-31T06:55:50;12.10;99.90
5041;DHT22;2539;52.568;13.364;2023-03-31T06:58:17;12.00;99.90
5041;DHT22;2539;52.568;13.364;2023-03-31T07:03:11;12.10;99.90
5041;DHT22;2539;52.568;13.364;2023-03-31T07:05:38;12.10;99.90
5041;DHT22;2539;52.568;13.364;2023-03-31T07:08:05;12.10;99.90
5041;DHT22;2539;52.568;13.364;2023-03-31T07:10:31;12.10;99.90
5041;DHT22;2539;52.568;13.364;2023-03-31T07:12:58;12.10;99.90
5041;DHT22;2539;52.568;13.364;2023-03-31T07:15:25;12.40;99.90
5041;DHT22;2539;52.568;13.364;2023-03-31T07:17:55;12.70;99.90
5041;DHT22;2539;52.568;13.364;2023-03-31T07:20:27;13.00;99.90
5041;DHT22;2539;52.568;13.364;2023-03-31T07:22:54;13.00;99.90
5041;DHT22;2539;52.568;13.364;2023-03-31T07:25:20;13.00;99.90
5041;DHT22;2539;52.568;13.364;2023-03-31T07:27:47;13.20;99.90
5041;DHT22;2539;52.568;13.364;2023-03-31T07:30:16;13.40;99.90
5041;DHT22;2539;52.568;13.364;2023-03-31T07:32:45;13.50;99.90
5041;DHT22;2539;52.568;13.364;2023-03-31T07:37:40;13.60;99.90
5041;DHT22;2539;52.568;13.364;2023-03-31T07:40:10;13.70;99.90
5041;DHT22;2539;52.568;13.364;2023-03-31T07:45:06;13.80;99.90
5041;DHT22;2539;52.568;13.364;2023-03-31T07:47:32;13.80;99.90
5041;DHT22;2539;52.568;13.364;2023-03-31T07:49:59;13.70;99.90
5041;DHT22;2539;52.568;13.364;2023-03-31T07:52:25;13.90;99.90
5041;DHT22;2539;52.568;13.364;2023-03-31T07:54:51;13.90;99.90
5041;DHT22;2539;52.568;13.364;2023-03-31T07:57:18;14.20;99.90
5041;DHT22;2539;52.568;13.364;2023-03-31T07:59:45;14.10;99.90
5041;DHT22;2539;52.568;13.364;2023-03-31T08:02:13;14.20;99.90
5041;DHT22;2539;52.568;13.364;2023-03-31T08:04:40;14.20;99.90
5041;DHT22;2539;52.568;13.364;2023-03-31T08:07:11;14.30;99.90
5041;DHT22;2539;52.568;13.364;2023-03-31T08:09:38;14.30;99.90
5041;DHT22;2539;52.568;13.364;2023-03-31T08:12:05;14.20;99.90
5041;DHT22;2539;52.568;13.364;2023-03-31T08:14:32;14.20;99.90
5041;DHT22;2539;52.568;13.364;2023-03-31T08:16:58;14.30;99.90
5041;DHT22;2539;52.568;13.364;2023-03-31T08:19:25;14.30;99.90
5041;DHT22;2539;52.568;13.364;2023-03-31T08:21:51;14.50;99.90
5041;DHT22;2539;52.568;13.364;2023-03-31T08:24:17;14.60;99.90
5041;DHT22;2539;52.568;13.364;2023-03-31T08:26:43;14.80;99.90
5041;DHT22;2539;52.568;13.364;2023-03-31T08:29:10;15.00;99.90
5041;DHT22;2539;52.568;13.364;2023-03-31T08:31:36;15.10;99.90
5041;DHT22;2539;52.568;13.364;2023-03-31T08:34:02;15.30;99.90
5041;DHT22;2539;52.568;13.364;2023-03-31T08:36:29;15.50;99.90
5041;DHT22;2539;52.568;13.364;2023-03-31T08:38:55;15.60;99.90
5041;DHT22;2539;52.568;13.364;2023-03-31T08:41:35;15.60;99.90
5041;DHT22;2539;52.568;13.364;2023-03-31T08:44:07;15.80;99.90
5041;DHT22;2539;52.568;13.364;2023-03-31T08:46:37;15.90;99.90
5041;DHT22;2539;52.568;13.364;2023-03-31T08:49:05;16.20;99.90
5041;DHT22;2539;52.568;13.364;2023-03-31T08:51:39;16.40;99.90
5041;DHT22;2539;52.568;13.364;2023-03-31T08:54:20;16.70;99.90
5041;DHT22;2539;52.568;13.364;2023-03-31T08:56:50;16.80;99.90
5041;DHT22;2539;52.568;13.364;2023-03-31T08:59:28;16.50;99.90
5041;DHT22;2539;52.568;13.364;2023-03-31T09:05:00;16.40;99.90
5041;DHT22;2539;52.568;13.364;2023-03-31T09:07:46;16.20;99.90
5041;DHT22;2539;52.568;13.364;2023-03-31T09:10:46;16.10;99.90
5041;DHT22;2539;52.568;13.364;2023-03-31T09:16:35;16.20;99.90
5041;DHT22;2539;52.568;13.364;2023-03-31T09:19:13;16.30;99.90
5041;DHT22;2539;52.568;13.364;2023-03-31T09:21:43;16.50;99.90
5041;DHT22;2539;52.568;13.364;2023-03-31T09:24:18;16.50;99.90
5041;DHT22;2539;52.568;13.364;2023-03-31T09:26:52;16.60;99.90
5041;DHT22;2539;52.568;13.364;2023-03-31T09:29:32;16.60;99.90
5041;DHT22;2539;52.568;13.364;2023-03-31T09:32:19;16.60;99.90
5041;DHT22;2539;52.568;13.364;2023-03-31T09:34:49;16.50;99.90
5041;DHT22;2539;52.568;13.364;2023-03-31T09:37:16;16.60;99.90
5041;DHT22;2539;52.568;13.364;2023-03-31T09:39:42;16.60;99.90
5041;DHT22;2539;52.568;13.364;2023-03-31T09:42:12;16.60;99.90
5041;DHT22;2539;52.568;13.364;2023-03-31T09:44:40;16.60;99.90
5041;DHT22;2539;52.568;13.364;2023-03-31T09:47:24;16.70;99.90
5041;DHT22;2539;52.568;13.364;2023-03-31T09:49:53;17.00;99.90
5041;DHT22;2539;52.568;13.364;2023-03-31T09:52:34;16.90;99.90
5041;DHT22;2539;52.568;13.364;2023-03-31T09:55:05;16.70;99.90
5041;DHT22;2539;52.568;13.364;2023-03-31T09:57:40;16.60;99.90
5041;DHT22;2539;52.568;13.364;2023-03-31T10:00:16;16.40;99.90
5041;DHT22;2539;52.568;13.364;2023-03-31T10:02:54;16.10;99.90
5041;DHT22;2539;52.568;13.364;2023-03-31T10:10:49;15.10;99.90
5041;DHT22;2539;52.568;13.364;2023-03-31T10:13:22;14.80;99.90
5041;DHT22;2539;52.568;13.364;2023-03-31T10:15:54;14.70;99.90
5041;DHT22;2539;52.568;13.364;2023-03-31T10:18:31;14.10;99.90
5041;DHT22;2539;52.568;13.364;2023-03-31T10:20:59;14.30;99.90
5041;DHT22;2539;52.568;13.364;2023-03-31T10:23:33;14.20;99.90
5041;DHT22;2539;52.568;13.364;2023-03-31T10:26:02;13.90;99.90
5041;DHT22;2539;52.568;13.364;2023-03-31T10:28:34;14.10;99.90
5041;DHT22;2539;52.568;13.364;2023-03-31T10:31:01;14.00;99.90
5041;DHT22;2539;52.568;13.364;2023-03-31T10:33:30;14.10;99.90
5041;DHT22;2539;52.568;13.364;2023-03-31T10:36:02;14.20;99.90
5041;DHT22;2539;52.568;13.364;2023-03-31T10:38:38;14.20;99.90
5041;DHT22;2539;52.568;13.364;2023-03-31T10:41:09;14.50;99.90
5041;DHT22;2539;52.568;13.364;2023-03-31T10:43:41;14.80;99.90
5041;DHT22;2539;52.568;13.364;2023-03-31T10:46:08;15.00;99.90
5041;DHT22;2539;52.568;13.364;2023-03-31T10:48:39;15.20;99.90
5041;DHT22;2539;52.568;13.364;2023-03-31T10:56:14;15.60;99.90
5041;DHT22;2539;52.568;13.364;2023-03-31T11:01:36;15.80;99.90
5041;DHT22;2539;52.568;13.364;2023-03-31T11:06:55;15.90;99.90
5041;DHT22;2539;52.568;13.364;2023-03-31T11:09:37;16.00;99.90
5041;DHT22;2539;52.568;13.364;2023-03-31T11:12:29;16.30;99.90
5041;DHT22;2539;52.568;13.364;2023-03-31T11:15:20;18.20;99.90
5041;DHT22;2539;52.568;13.364;2023-03-31T11:23:14;17.30;99.90
5041;DHT22;2539;52.568;13.364;2023-03-31T11:25:58;17.20;99.90
5041;DHT22;2539;52.568;13.364;2023-03-31T11:31:31;16.90;99.90
5041;DHT22;2539;52.568;13.364;2023-03-31T11:39:48;17.00;99.90
5041;DHT22;2539;52.568;13.364;2023-03-31T11:42:25;17.10;99.90
5041;DHT22;2539;52.568;13.364;2023-03-31T11:45:02;17.20;99.90
5041;DHT22;2539;52.568;13.364;2023-03-31T11:47:33;17.00;99.90
5041;DHT22;2539;52.568;13.364;2023-03-31T11:50:08;17.00;99.90
5041;DHT22;2539;52.568;13.364;2023-03-31T11:52:42;17.00;99.90
5041;DHT22;2539;52.568;13.364;2023-03-31T11:55:20;17.00;99.90
5041;DHT22;2539;52.568;13.364;2023-03-31T11:58:04;16.70;99.90
5041;DHT22;2539;52.568;13.364;2023-03-31T12:00:37;16.60;99.90
5041;DHT22;2539;52.568;13.364;2023-03-31T12:05:37;16.50;99.90
5041;DHT22;2539;52.568;13.364;2023-03-31T12:08:28;16.50;99.90
5041;DHT22;2539;52.568;13.364;2023-03-31T12:11:07;16.50;99.90
5041;DHT22;2539;52.568;13.364;2023-03-31T12:13:58;16.30;99.90
5041;DHT22;2539;52.568;13.364;2023-03-31T12:16:36;16.30;99.90
5041;DHT22;2539;52.568;13.364;2023-03-31T12:19:21;16.10;99.90
5041;DHT22;2539;52.568;13.364;2023-03-31T12:21:54;16.00;99.90
5041;DHT22;2539;52.568;13.364;2023-03-31T12:24:21;15.80;99.90
5041;DHT22;2539;52.568;13.364;2023-03-31T12:27:09;15.40;99.90
5041;DHT22;2539;52.568;13.364;2023-03-31T12:29:40;15.20;99.90
5041;DHT22;2539;52.568;13.364;2023-03-31T12:32:14;15.00;99.90
5041;DHT22;2539;52.568;13.364;2023-03-31T12:34:47;15.00;99.90
5041;DHT22;2539;52.568;13.364;2023-03-31T12:37:28;15.20;99.90
5041;DHT22;2539;52.568;13.364;2023-03-31T12:41:19;15.40;99.90
5041;DHT22;2539;52.568;13.364;2023-03-31T12:45:57;15.70;99.90
5041;DHT22;2539;52.568;13.364;2023-03-31T12:53:58;16.20;99.90
5041;DHT22;2539;52.568;13.364;2023-03-31T12:56:27;16.20;99.90
5041;DHT22;2539;52.568;13.364;2023-03-31T13:01:21;16.20;99.90
5041;DHT22;2539;52.568;13.364;2023-03-31T13:04:20;15.80;99.90
5041;DHT22;2539;52.568;13.364;2023-03-31T13:06:55;15.50;99.90
5041;DHT22;2539;52.568;13.364;2023-03-31T13:11:47;14.40;99.90
5041;DHT22;2539;52.568;13.364;2023-03-31T13:14:21;13.90;99.90
5041;DHT22;2539;52.568;13.364;2023-03-31T13:16:49;13.50;99.90
5041;DHT22;2539;52.568;13.364;2023-03-31T13:19:31;13.40;99.90
5041;DHT22;2539;52.568;13.364;2023-03-31T13:22:00;13.10;99.90
5041;DHT22;2539;52.568;13.364;2023-03-31T13:24:28;13.00;99.90
5041;DHT22;2539;52.568;13.364;2023-03-31T13:26:55;12.90;99.90
5041;DHT22;2539;52.568;13.364;2023-03-31T13:29:40;12.90;99.90
5041;DHT22;2539;52.568;13.364;2023-03-31T13:32:22;12.80;99.90
5041;DHT22;2539;52.568;13.364;2023-03-31T13:35:04;12.70;99.90
5041;DHT22;2539;52.568;13.364;2023-03-31T13:38:03;12.70;99.90
5041;DHT22;2539;52.568;13.364;2023-03-31T13:40:50;12.60;99.90
5041;DHT22;2539;52.568;13.364;2023-03-31T13:46:30;12.50;99.90
5041;DHT22;2539;52.568;13.364;2023-03-31T13:49:18;12.60;99.90
5041;DHT22;2539;52.568;13.364;2023-03-31T13:51:57;12.40;99.90
5041;DHT22;2539;52.568;13.364;2023-03-31T13:57:43;12.40;99.90
5041;DHT22;2539;52.568;13.364;2023-03-31T14:00:32;12.30;99.90
5041;DHT22;2539;52.568;13.364;2023-03-31T14:03:47;12.20;99.90
5041;DHT22;2539;52.568;13.364;2023-03-31T14:06:39;12.20;99.90
5041;DHT22;2539;52.568;13.364;2023-03-31T14:09:19;12.20;99.90
5041;DHT22;2539;52.568;13.364;2023-03-31T14:11:48;12.10;99.90
5041;DHT22;2539;52.568;13.364;2023-03-31T14:14:17;12.00;99.90
5041;DHT22;2539;52.568;13.364;2023-03-31T14:16:55;11.80;99.90
5041;DHT22;2539;52.568;13.364;2023-03-31T14:25:17;11.80;99.90
5041;DHT22;2539;52.568;13.364;2023-03-31T14:28:04;11.80;99.90
5041;DHT22;2539;52.568;13.364;2023-03-31T14:35:57;11.80;99.90
5041;DHT22;2539;52.568;13.364;2023-03-31T14:38:28;11.80;99.90
5041;DHT22;2539;52.568;13.364;2023-03-31T14:40:55;11.90;99.90
5041;DHT22;2539;52.568;13.364;2023-03-31T14:43:25;12.00;99.90
5041;DHT22;2539;52.568;13.364;2023-03-31T14:46:00;11.90;99.90
5041;DHT22;2539;52.568;13.364;2023-03-31T14:48:33;12.00;99.90
5041;DHT22;2539;52.568;13.364;2023-03-31T14:51:01;11.90;99.90
5041;DHT22;2539;52.568;13.364;2023-03-31T14:53:28;12.00;99.90
5041;DHT22;2539;52.568;13.364;2023-03-31T14:56:00;11.90;99.90
5041;DHT22;2539;52.568;13.364;2023-03-31T14:58:49;11.80;99.90
5041;DHT22;2539;52.568;13.364;2023-03-31T15:01:23;11.80;99.90
5041;DHT22;2539;52.568;13.364;2023-03-31T15:03:51;11.70;99.90
5041;DHT22;2539;52.568;13.364;2023-03-31T15:06:18;11.80;99.90
5041;DHT22;2539;52.568;13.364;2023-03-31T15:08:44;11.80;99.90
5041;DHT22;2539;52.568;13.364;2023-03-31T15:11:16;11.70;99.90
5041;DHT22;2539;52.568;13.364;2023-03-31T15:13:46;11.80;99.90
5041;DHT22;2539;52.568;13.364;2023-03-31T15:16:35;11.80;99.90
5041;DHT22;2539;52.568;13.364;2023-03-31T15:19:18;11.70;99.90
5041;DHT22;2539;52.568;13.364;2023-03-31T15:21:52;11.60;99.90
5041;DHT22;2539;52.568;13.364;2023-03-31T15:24:19;12.30;99.90
5041;DHT22;2539;52.568;13.364;2023-03-31T15:27:02;11.50;99.90
5041;DHT22;2539;52.568;13.364;2023-03-31T15:29:41;11.40;99.90
5041;DHT22;2539;52.568;13.364;2023-03-31T15:32:45;11.50;99.90
5041;DHT22;2539;52.568;13.364;2023-03-31T15:35:20;11.50;99.90
5041;DHT22;2539;52.568;13.364;2023-03-31T15:37:47;11.50;99.90
5041;DHT22;2539;52.568;13.364;2023-03-31T15:40:29;11.50;99.90
5041;DHT22;2539;52.568;13.364;2023-03-31T15:42:58;11.40;99.90
5041;DHT22;2539;52.568;13.364;2023-03-31T15:48:03;11.40;99.90
5041;DHT22;2539;52.568;13.364;2023-03-31T15:50:31;11.40;99.90
5041;DHT22;2539;52.568;13.364;2023-03-31T15:52:58;11.40;99.90
5041;DHT22;2539;52.568;13.364;2023-03-31T15:55:29;11.40;99.90
5041;DHT22;2539;52.568;13.364;2023-03-31T15:57:59;11.40;99.90
5041;DHT22;2539;52.568;13.364;2023-03-31T16:00:50;11.40;99.90
5041;DHT22;2539;52.568;13.364;2023-03-31T16:03:23;11.30;99.90
5041;DHT22;2539;52.568;13.364;2023-03-31T16:05:54;9.70;99.90
5041;DHT22;2539;52.568;13.364;2023-03-31T16:08:29;11.20;99.90
5041;DHT22;2539;52.568;13.364;2023-03-31T16:11:04;11.30;99.90
5041;DHT22;2539;52.568;13.364;2023-03-31T16:13:33;11.10;99.90
5041;DHT22;2539;52.568;13.364;2023-03-31T16:16:00;11.10;99.90
5041;DHT22;2539;52.568;13.364;2023-03-31T16:18:31;11.10;99.90
5041;DHT22;2539;52.568;13.364;2023-03-31T16:21:01;11.10;99.90
5041;DHT22;2539;52.568;13.364;2023-03-31T16:23:34;11.20;99.90
5041;DHT22;2539;52.568;13.364;2023-03-31T16:26:04;11.20;99.90
5041;DHT22;2539;52.568;13.364;2023-03-31T16:28:34;11.30;99.90
5041;DHT22;2539;52.568;13.364;2023-03-31T16:31:01;11.40;99.90
5041;DHT22;2539;52.568;13.364;2023-03-31T16:33:29;11.40;99.90
5041;DHT22;2539;52.568;13.364;2023-03-31T16:35:57;11.40;99.90
5041;DHT22;2539;52.568;13.364;2023-03-31T16:38:26;11.50;99.90
5041;DHT22;2539;52.568;13.364;2023-03-31T16:40:54;11.40;99.90
5041;DHT22;2539;52.568;13.364;2023-03-31T16:43:23;11.40;99.90
5041;DHT22;2539;52.568;13.364;2023-03-31T16:45:57;11.20;99.90
5041;DHT22;2539;52.568;13.364;2023-03-31T16:48:26;11.20;99.90
5041;DHT22;2539;52.568;13.364;2023-03-31T16:50:55;12.90;99.90
5041;DHT22;2539;52.568;13.364;2023-03-31T16:53:24;11.10;99.90
5041;DHT22;2539;52.568;13.364;2023-03-31T16:55:53;11.10;99.90
5041;DHT22;2539;52.568;13.364;2023-03-31T16:58:20;11.10;99.90
5041;DHT22;2539;52.568;13.364;2023-03-31T17:00:49;11.10;99.90
5041;DHT22;2539;52.568;13.364;2023-03-31T17:03:16;11.10;99.90
5041;DHT22;2539;52.568;13.364;2023-03-31T17:05:47;11.10;99.90
5041;DHT22;2539;52.568;13.364;2023-03-31T17:08:15;11.00;99.90
5041;DHT22;2539;52.568;13.364;2023-03-31T17:10:54;10.90;99.90
5041;DHT22;2539;52.568;13.364;2023-03-31T17:13:20;10.90;99.90
5041;DHT22;2539;52.568;13.364;2023-03-31T17:15:47;13.50;99.90
5041;DHT22;2539;52.568;13.364;2023-03-31T17:18:14;10.80;99.90
5041;DHT22;2539;52.568;13.364;2023-03-31T17:20:40;10.80;99.90
5041;DHT22;2539;52.568;13.364;2023-03-31T17:23:06;10.90;99.90
5041;DHT22;2539;52.568;13.364;2023-03-31T17:25:33;10.70;99.90
5041;DHT22;2539;52.568;13.364;2023-03-31T17:28:04;10.80;99.90
5041;DHT22;2539;52.568;13.364;2023-03-31T17:30:31;10.70;99.90
5041;DHT22;2539;52.568;13.364;2023-03-31T17:33:00;10.70;99.90
5041;DHT22;2539;52.568;13.364;2023-03-31T17:35:26;10.70;99.90
5041;DHT22;2539;52.568;13.364;2023-03-31T17:37:52;10.70;99.90
5041;DHT22;2539;52.568;13.364;2023-03-31T17:40:21;10.70;99.90
5041;DHT22;2539;52.568;13.364;2023-03-31T17:42:47;10.70;99.90
5041;DHT22;2539;52.568;13.364;2023-03-31T17:45:14;10.70;99.90
5041;DHT22;2539;52.568;13.364;2023-03-31T17:47:41;10.70;99.90
5041;DHT22;2539;52.568;13.364;2023-03-31T17:50:09;10.70;99.90
5041;DHT22;2539;52.568;13.364;2023-03-31T17:52:36;10.70;99.90
5041;DHT22;2539;52.568;13.364;2023-03-31T17:55:03;10.70;99.90
5041;DHT22;2539;52.568;13.364;2023-03-31T17:57:30;10.70;99.90
5041;DHT22;2539;52.568;13.364;2023-03-31T17:59:56;10.60;99.90
5041;DHT22;2539;52.568;13.364;2023-03-31T18:02:23;11.70;99.90
5041;DHT22;2539;52.568;13.364;2023-03-31T18:04:49;10.60;99.90
5041;DHT22;2539;52.568;13.364;2023-03-31T18:07:16;10.60;99.90
5041;DHT22;2539;52.568;13.364;2023-03-31T18:09:48;10.60;99.90